createdAt,value
2018-03-11T00:00:01.094Z,33.83
2018-03-11T00:02:28.588Z,41.97
2018-03-11T00:04:56.097Z,34.73
2018-03-11T00:07:23.603Z,28.20
2018-03-11T00:09:51.090Z,23.43
2018-03-11T00:12:18.593Z,24.03
2018-03-11T00:14:46.078Z,18.83
2018-03-11T00:17:13.571Z,21.37
2018-03-11T00:19:41.048Z,28.00
2018-03-11T00:22:08.559Z,22.30
2018-03-11T00:24:36.051Z,23.40
2018-03-11T00:27:03.522Z,27.60
2018-03-11T00:29:31.019Z,28.67
2018-03-11T00:31:58.515Z,29.13
2018-03-11T00:34:26.019Z,30.33
2018-03-11T00:36:53.514Z,35.37
2018-03-11T00:39:21.047Z,28.60
2018-03-11T00:41:48.492Z,32.53
2018-03-11T00:44:16.741Z,25.37
2018-03-11T00:46:44.232Z,29.53
2018-03-11T00:49:12.463Z,28.13
2018-03-11T00:51:39.954Z,28.20
2018-03-11T00:54:07.444Z,28.83
2018-03-11T00:56:34.928Z,33.80
2018-03-11T00:59:02.441Z,32.37
2018-03-11T01:01:30.683Z,27.43
2018-03-11T01:03:58.176Z,27.30
2018-03-11T01:06:25.676Z,29.27
2018-03-11T01:08:53.146Z,35.70
2018-03-11T01:11:20.644Z,43.93
2018-03-11T01:13:48.891Z,46.90
2018-03-11T01:16:16.385Z,80.20
2018-03-11T01:18:44.625Z,42.17
2018-03-11T01:21:12.114Z,32.60
2018-03-11T01:23:40.363Z,36.20
2018-03-11T01:26:07.847Z,44.63
2018-03-11T01:28:35.357Z,40.90
2018-03-11T01:31:02.859Z,39.40
2018-03-11T01:33:30.350Z,27.63
2018-03-11T01:35:57.862Z,23.77
2018-03-11T01:38:25.324Z,20.70
2018-03-11T01:40:53.606Z,18.20
2018-03-11T01:43:21.853Z,25.03
2018-03-11T01:45:49.320Z,22.60
2018-03-11T01:48:16.794Z,38.53
2018-03-11T01:50:45.062Z,75.17
2018-03-11T01:53:13.353Z,30.47
2018-03-11T01:55:40.840Z,32.93
2018-03-11T01:58:08.330Z,27.33
2018-03-11T02:00:35.839Z,24.07
2018-03-11T02:03:03.318Z,18.20
2018-03-11T02:05:30.795Z,16.43
2018-03-11T02:07:58.294Z,19.10
2018-03-11T02:10:26.533Z,15.37
2018-03-11T02:12:54.020Z,15.90
2018-03-11T02:15:22.259Z,16.83
2018-03-11T02:17:49.734Z,23.57
2018-03-11T02:20:17.227Z,33.70
2018-03-11T02:22:44.704Z,21.07
2018-03-11T02:25:12.223Z,34.17
2018-03-11T02:27:40.481Z,23.47
2018-03-11T02:30:07.954Z,23.10
2018-03-11T02:32:35.452Z,23.63
2018-03-11T02:35:02.924Z,24.73
2018-03-11T02:37:30.427Z,28.43
2018-03-11T02:39:58.672Z,29.70
2018-03-11T02:42:26.182Z,26.87
2018-03-11T02:44:53.675Z,32.20
2018-03-11T02:47:21.159Z,36.33
2018-03-11T02:49:48.643Z,35.47
2018-03-11T02:52:16.133Z,28.73
2018-03-11T02:54:43.600Z,30.23
2018-03-11T02:57:11.088Z,26.97
2018-03-11T02:59:38.565Z,28.13
2018-03-11T03:02:07.603Z,25.87
2018-03-11T03:04:35.097Z,26.40
2018-03-11T03:07:02.572Z,33.00
2018-03-11T03:09:30.828Z,24.20
2018-03-11T03:11:58.313Z,24.73
2018-03-11T03:14:26.574Z,27.13
2018-03-11T03:16:54.061Z,21.60
2018-03-11T03:19:21.545Z,23.93
2018-03-11T03:21:49.044Z,21.80
2018-03-11T03:24:16.516Z,31.07
2018-03-11T03:26:44.016Z,21.93
2018-03-11T03:29:11.506Z,21.63
2018-03-11T03:31:38.980Z,19.23
2018-03-11T03:34:06.483Z,30.70
2018-03-11T03:36:33.967Z,27.47
2018-03-11T03:39:01.461Z,28.07
2018-03-11T03:41:29.715Z,18.93
2018-03-11T03:43:57.199Z,25.20
2018-03-11T03:46:25.454Z,22.63
2018-03-11T03:48:53.018Z,25.90
2018-03-11T03:51:21.282Z,24.00
2018-03-11T03:53:48.761Z,25.53
2018-03-11T03:56:16.230Z,24.77
2018-03-11T03:58:43.747Z,23.90
2018-03-11T04:01:11.228Z,28.73
2018-03-11T04:03:39.488Z,29.17
2018-03-11T04:06:06.966Z,29.00
2018-03-11T04:08:34.476Z,30.00
2018-03-11T04:11:01.943Z,33.50
2018-03-11T04:13:29.459Z,28.70
2018-03-11T04:15:56.965Z,22.07
2018-03-11T04:18:24.453Z,28.43
2018-03-11T04:20:54.157Z,23.17
2018-03-11T04:23:22.431Z,21.87
2018-03-11T04:25:50.680Z,19.47
2018-03-11T04:28:18.202Z,20.40
2018-03-11T04:30:45.676Z,23.73
2018-03-11T04:33:13.150Z,25.37
2018-03-11T04:35:40.644Z,26.30
2018-03-11T04:38:08.112Z,29.80
2018-03-11T04:40:36.367Z,34.83
2018-03-11T04:43:03.847Z,35.10
2018-03-11T04:45:32.084Z,31.00
2018-03-11T04:47:59.617Z,30.97
2018-03-11T04:50:27.080Z,28.97
2018-03-11T04:52:54.592Z,26.10
2018-03-11T04:55:22.060Z,23.03
2018-03-11T04:57:49.566Z,31.13
2018-03-11T05:00:17.108Z,22.13
2018-03-11T05:02:44.581Z,20.60
2018-03-11T05:05:12.069Z,21.90
2018-03-11T05:07:39.549Z,33.20
2018-03-11T05:10:07.030Z,25.97
2018-03-11T05:12:34.523Z,26.17
2018-03-11T05:15:02.011Z,26.27
2018-03-11T05:17:30.281Z,27.00
2018-03-11T05:19:58.526Z,21.80
2018-03-11T05:22:26.014Z,32.00
2018-03-11T05:24:54.266Z,26.10
2018-03-11T05:27:21.753Z,30.23
2018-03-11T05:29:49.256Z,42.10
2018-03-11T05:32:16.742Z,41.37
2018-03-11T05:34:44.217Z,39.63
2018-03-11T05:37:12.472Z,39.77
2018-03-11T05:39:39.946Z,39.93
2018-03-11T05:42:08.207Z,46.77
2018-03-11T05:44:35.685Z,43.20
2018-03-11T05:47:03.211Z,33.23
2018-03-11T05:49:30.675Z,36.97
2018-03-11T05:51:58.156Z,30.33
2018-03-11T05:54:26.436Z,25.07
2018-03-11T05:56:54.684Z,34.10
2018-03-11T05:59:22.230Z,23.93
2018-03-11T06:01:49.736Z,23.27
2018-03-11T06:04:17.235Z,21.20
2018-03-11T06:06:44.745Z,20.47
2018-03-11T06:09:12.209Z,19.27
2018-03-11T06:11:39.706Z,21.67
2018-03-11T06:14:07.231Z,22.53
2018-03-11T06:16:34.721Z,19.70
2018-03-11T06:19:02.257Z,21.17
2018-03-11T06:21:29.747Z,20.17
2018-03-11T06:23:57.260Z,22.93
2018-03-11T06:26:24.785Z,20.37
2018-03-11T06:28:52.264Z,17.87
2018-03-11T06:31:20.546Z,18.43
2018-03-11T06:33:48.088Z,18.83
2018-03-11T06:36:16.358Z,22.13
2018-03-11T06:38:43.864Z,17.10
2018-03-11T06:41:11.361Z,16.20
2018-03-11T06:43:38.851Z,19.07
2018-03-11T06:46:06.318Z,15.60
2018-03-11T06:48:33.799Z,17.17
2018-03-11T06:51:01.312Z,18.50
2018-03-11T06:53:29.592Z,21.70
2018-03-11T06:55:58.106Z,17.10
2018-03-11T06:58:25.606Z,16.70
2018-03-11T07:00:53.081Z,14.43
2018-03-11T07:03:20.559Z,18.77
2018-03-11T07:05:48.032Z,15.23
2018-03-11T07:08:15.536Z,15.43
2018-03-11T07:10:43.019Z,14.03
2018-03-11T07:13:11.284Z,16.53
2018-03-11T07:15:39.561Z,19.53
2018-03-11T07:18:07.048Z,19.87
2018-03-11T07:20:34.541Z,16.10
2018-03-11T07:23:02.035Z,15.60
2018-03-11T07:25:29.496Z,12.33
2018-03-11T07:27:56.986Z,10.43
2018-03-11T07:30:24.451Z,10.80
2018-03-11T07:32:52.729Z,10.47
2018-03-11T07:35:20.420Z,11.63
2018-03-11T07:37:47.907Z,8.30
2018-03-11T07:40:16.213Z,8.97
2018-03-11T07:42:44.433Z,7.77
2018-03-11T07:45:11.961Z,11.33
2018-03-11T07:47:39.507Z,9.60
2018-03-11T07:50:06.994Z,5.70
2018-03-11T07:52:34.551Z,6.67
2018-03-11T07:55:02.045Z,8.90
2018-03-11T07:57:29.580Z,11.43
2018-03-11T07:59:57.060Z,11.23
2018-03-11T08:02:24.592Z,8.00
2018-03-11T08:04:52.095Z,9.03
2018-03-11T08:07:20.397Z,9.00
2018-03-11T08:09:47.935Z,6.40
2018-03-11T08:12:15.452Z,6.30
2018-03-11T08:14:42.966Z,5.77
2018-03-11T08:17:10.496Z,4.93
2018-03-11T08:19:38.748Z,5.30
2018-03-11T08:22:06.300Z,5.90
2018-03-11T08:24:33.783Z,6.33
2018-03-11T08:27:01.830Z,9.00
2018-03-11T08:29:29.569Z,8.43
2018-03-11T08:31:57.168Z,11.00
2018-03-11T08:34:24.764Z,10.03
2018-03-11T08:36:52.257Z,12.20
2018-03-11T08:39:19.857Z,9.23
2018-03-11T08:41:48.146Z,7.70
2018-03-11T08:44:16.421Z,5.47
2018-03-11T08:46:44.714Z,6.37
2018-03-11T08:49:12.240Z,7.77
2018-03-11T08:51:40.508Z,6.10
2018-03-11T08:54:08.218Z,6.97
2018-03-11T08:56:35.741Z,6.13
2018-03-11T08:59:03.993Z,4.73
2018-03-11T09:01:31.537Z,5.40
2018-03-11T09:03:59.051Z,6.20
2018-03-11T09:06:26.526Z,4.63
2018-03-11T09:08:54.011Z,4.30
2018-03-11T09:11:21.521Z,3.50
2018-03-11T09:13:49.763Z,3.83
2018-03-11T09:16:17.240Z,4.80
2018-03-11T09:18:45.524Z,5.70
2018-03-11T09:21:13.782Z,4.60
2018-03-11T09:23:41.295Z,4.70
2018-03-11T09:26:08.779Z,5.53
2018-03-11T09:28:36.295Z,7.63
2018-03-11T09:31:03.801Z,4.57
2018-03-11T09:33:31.383Z,4.33
2018-03-11T09:35:59.645Z,9.60
2018-03-11T09:38:27.164Z,3.77
2018-03-11T09:40:54.667Z,2.83
2018-03-11T09:43:22.953Z,3.07
2018-03-11T09:45:51.660Z,3.40
2018-03-11T09:48:19.214Z,3.27
2018-03-11T09:50:46.695Z,3.70
2018-03-11T09:53:14.246Z,3.87
2018-03-11T09:55:41.810Z,2.40
2018-03-11T09:58:09.313Z,2.57
2018-03-11T10:00:36.812Z,2.40
2018-03-11T10:03:04.381Z,3.60
2018-03-11T10:05:31.951Z,3.10
2018-03-11T10:07:59.434Z,2.63
2018-03-11T10:10:26.920Z,2.90
2018-03-11T10:12:54.444Z,3.20
2018-03-11T10:15:21.917Z,2.30
2018-03-11T10:17:49.453Z,2.47
2018-03-11T10:20:16.930Z,4.23
2018-03-11T10:22:44.455Z,2.23
2018-03-11T10:25:12.743Z,3.00
2018-03-11T10:27:40.303Z,3.57
2018-03-11T10:30:07.852Z,3.87
2018-03-11T10:32:35.338Z,2.53
2018-03-11T10:35:02.840Z,3.00
2018-03-11T10:37:30.423Z,3.13
2018-03-11T10:39:58.673Z,4.13
2018-03-11T10:42:26.963Z,4.43
2018-03-11T10:44:54.465Z,3.93
2018-03-11T10:47:21.959Z,3.07
2018-03-11T10:49:50.228Z,2.70
2018-03-11T10:52:17.738Z,3.80
2018-03-11T10:54:45.239Z,3.57
2018-03-11T10:57:13.510Z,1.63
2018-03-11T10:59:41.830Z,1.60
2018-03-11T11:02:22.097Z,2.30
2018-03-11T11:04:55.236Z,2.27
2018-03-11T11:07:23.497Z,2.43
2018-03-11T11:09:51.016Z,2.27
2018-03-11T11:12:18.542Z,3.00
2018-03-11T11:14:46.034Z,3.70
2018-03-11T11:17:13.531Z,2.63
2018-03-11T11:19:41.044Z,2.47
2018-03-11T11:22:08.544Z,2.30
2018-03-11T11:24:36.047Z,5.20
2018-03-11T11:27:03.579Z,3.67
2018-03-11T11:29:31.846Z,3.23
2018-03-11T11:31:59.330Z,2.30
2018-03-11T11:34:26.846Z,2.87
2018-03-11T11:36:54.346Z,4.60
2018-03-11T11:39:21.836Z,6.33
2018-03-11T11:41:49.377Z,4.20
2018-03-11T11:44:16.874Z,3.17
2018-03-11T11:46:44.431Z,2.30
2018-03-11T11:49:11.930Z,3.53
2018-03-11T11:51:40.198Z,1.70
2018-03-11T11:54:07.692Z,1.67
2018-03-11T11:56:35.195Z,2.10
2018-03-11T11:59:02.678Z,2.00
2018-03-11T12:01:30.934Z,2.10
2018-03-11T12:03:58.437Z,2.30
2018-03-11T12:06:27.614Z,1.80
2018-03-11T12:08:55.151Z,2.93
2018-03-11T12:11:23.406Z,1.77
2018-03-11T12:13:50.909Z,4.30
2018-03-11T12:16:18.457Z,2.37
2018-03-11T12:18:46.742Z,2.13
2018-03-11T12:21:14.241Z,3.90
2018-03-11T12:23:41.782Z,2.57
2018-03-11T12:26:09.285Z,3.27
2018-03-11T12:28:36.798Z,2.73
2018-03-11T12:31:04.305Z,2.00
2018-03-11T12:33:32.604Z,2.77
2018-03-11T12:36:00.846Z,2.13
2018-03-11T12:38:28.340Z,2.13
2018-03-11T12:40:55.858Z,1.70
2018-03-11T12:43:23.384Z,5.83
2018-03-11T12:45:50.887Z,1.63
2018-03-11T12:48:18.390Z,1.50
2018-03-11T12:50:45.889Z,2.10
2018-03-11T12:53:13.387Z,2.80
2018-03-11T12:55:40.915Z,4.33
2018-03-11T12:58:08.468Z,2.60
2018-03-11T13:00:35.940Z,4.67
2018-03-11T13:03:03.452Z,6.83
2018-03-11T13:05:30.946Z,3.17
2018-03-11T13:07:58.458Z,2.53
2018-03-11T13:10:26.735Z,2.53
2018-03-11T13:12:54.245Z,2.43
2018-03-11T13:15:21.774Z,2.10
2018-03-11T13:17:49.296Z,2.90
2018-03-11T13:20:28.581Z,2.00
2018-03-11T13:22:56.069Z,1.80
2018-03-11T13:25:24.333Z,1.60
2018-03-11T13:28:04.467Z,1.80
2018-03-11T13:30:32.006Z,1.50
2018-03-11T13:33:11.310Z,1.63
2018-03-11T13:35:39.414Z,2.57
2018-03-11T13:38:18.509Z,1.57
2018-03-11T13:40:46.018Z,1.50
2018-03-11T13:43:14.311Z,1.90
2018-03-11T13:46:05.133Z,2.17
2018-03-11T13:48:32.616Z,1.23
2018-03-11T13:51:00.138Z,1.90
2018-03-11T13:53:40.155Z,1.70
2018-03-11T13:56:07.664Z,2.20
2018-03-11T13:58:43.814Z,2.63
2018-03-11T14:01:12.177Z,1.60
2018-03-11T14:03:39.677Z,1.57
2018-03-11T14:06:07.219Z,1.63
2018-03-11T14:08:35.512Z,2.00
2018-03-11T14:11:03.052Z,1.70
2018-03-11T14:13:30.597Z,2.00
2018-03-11T14:15:58.858Z,1.57
2018-03-11T14:18:27.142Z,1.50
2018-03-11T14:20:54.645Z,1.77
2018-03-11T14:23:22.161Z,1.63
2018-03-11T14:25:49.718Z,1.60
2018-03-11T14:28:18.003Z,1.43
2018-03-11T14:30:46.261Z,1.40
2018-03-11T14:33:13.770Z,1.90
2018-03-11T14:35:41.267Z,1.70
2018-03-11T14:38:08.788Z,3.40
2018-03-11T14:40:36.311Z,2.63
2018-03-11T14:43:04.601Z,3.00
2018-03-11T14:45:32.123Z,1.80
2018-03-11T14:47:59.652Z,1.43
2018-03-11T14:50:27.211Z,2.93
2018-03-11T14:52:55.452Z,2.27
2018-03-11T14:55:22.939Z,2.10
2018-03-11T14:57:50.486Z,1.80
2018-03-11T15:00:18.005Z,2.47
2018-03-11T15:02:46.296Z,1.50
2018-03-11T15:05:14.579Z,1.77
2018-03-11T15:07:42.069Z,3.20
2018-03-11T15:10:09.576Z,2.60
2018-03-11T15:12:37.835Z,3.93
2018-03-11T15:15:05.363Z,1.60
2018-03-11T15:17:33.388Z,2.13
2018-03-11T15:20:01.659Z,3.37
2018-03-11T15:22:29.952Z,3.20
2018-03-11T15:24:58.204Z,2.20
2018-03-11T15:27:25.738Z,2.47
2018-03-11T15:29:53.280Z,1.27
2018-03-11T15:32:20.809Z,1.40
2018-03-11T15:34:49.083Z,1.50
2018-03-11T15:37:16.576Z,2.03
2018-03-11T15:39:44.130Z,1.97
2018-03-11T15:42:11.650Z,2.70
2018-03-11T15:44:39.919Z,1.50
2018-03-11T15:47:07.514Z,1.53
2018-03-11T15:49:35.057Z,2.67
2018-03-11T15:52:02.519Z,1.60
2018-03-11T15:54:30.058Z,3.10
2018-03-11T15:56:58.345Z,2.73
2018-03-11T15:59:25.847Z,1.43
2018-03-11T16:01:53.363Z,2.10
2018-03-11T16:04:20.850Z,2.03
2018-03-11T16:06:48.357Z,1.47
2018-03-11T16:09:16.627Z,3.13
2018-03-11T16:11:44.950Z,1.90
2018-03-11T16:14:12.437Z,1.77
2018-03-11T16:16:39.917Z,2.03
2018-03-11T16:19:07.423Z,1.37
2018-03-11T16:21:34.936Z,1.57
2018-03-11T16:24:02.417Z,1.50
2018-03-11T16:26:29.897Z,2.00
2018-03-11T16:28:57.387Z,3.87
2018-03-11T16:31:24.887Z,6.10
2018-03-11T16:33:52.403Z,2.03
2018-03-11T16:36:19.920Z,2.23
2018-03-11T16:38:47.415Z,1.97
2018-03-11T16:41:14.908Z,1.77
2018-03-11T16:43:43.190Z,2.13
2018-03-11T16:46:11.438Z,1.53
2018-03-11T16:48:38.950Z,1.93
2018-03-11T16:51:06.444Z,5.43
2018-03-11T16:53:33.960Z,6.10
2018-03-11T16:56:01.476Z,2.43
2018-03-11T16:58:30.776Z,1.63
2018-03-11T17:00:58.288Z,2.57
2018-03-11T17:03:25.828Z,1.90
2018-03-11T17:05:53.325Z,4.60
2018-03-11T17:08:20.836Z,2.77
2018-03-11T17:10:48.311Z,1.80
2018-03-11T17:13:15.846Z,2.10
2018-03-11T17:15:44.111Z,2.03
2018-03-11T17:18:12.388Z,1.83
2018-03-11T17:20:40.669Z,5.47
2018-03-11T17:23:08.947Z,3.80
2018-03-11T17:25:37.202Z,1.60
2018-03-11T17:28:04.694Z,2.03
2018-03-11T17:30:32.191Z,1.90
2018-03-11T17:32:59.734Z,2.33
2018-03-11T17:35:27.242Z,2.50
2018-03-11T17:37:54.758Z,3.40
2018-03-11T17:40:22.280Z,2.37
2018-03-11T17:42:49.751Z,2.00
2018-03-11T17:45:17.251Z,3.30
2018-03-11T17:47:44.744Z,10.40
2018-03-11T17:50:13.067Z,14.70
2018-03-11T17:52:40.547Z,10.63
2018-03-11T17:55:08.034Z,22.60
2018-03-11T17:57:36.337Z,18.80
2018-03-11T18:00:03.818Z,25.10
2018-03-11T18:02:31.340Z,39.27
2018-03-11T18:04:59.675Z,30.47
2018-03-11T18:07:27.165Z,21.53
2018-03-11T18:09:54.691Z,18.90
2018-03-11T18:12:22.181Z,19.37
2018-03-11T18:14:49.674Z,15.27
2018-03-11T18:17:17.158Z,3.30
2018-03-11T18:19:44.661Z,2.93
2018-03-11T18:22:12.161Z,3.23
2018-03-11T18:24:39.655Z,4.23
2018-03-11T18:27:07.167Z,2.73
2018-03-11T18:29:34.670Z,4.00
2018-03-11T18:32:02.225Z,4.67
2018-03-11T18:34:29.730Z,4.30
2018-03-11T18:36:57.252Z,3.00
2018-03-11T18:39:24.767Z,3.47
2018-03-11T18:41:52.268Z,3.30
2018-03-11T18:44:20.529Z,4.30
2018-03-11T18:46:48.036Z,3.33
2018-03-11T18:49:15.541Z,2.87
2018-03-11T18:51:43.051Z,3.07
2018-03-11T18:54:10.532Z,2.73
2018-03-11T18:56:38.028Z,3.33
2018-03-11T18:59:05.592Z,2.67
2018-03-11T19:01:33.905Z,6.97
2018-03-11T19:04:01.408Z,2.70
2018-03-11T19:06:28.941Z,2.60
2018-03-11T19:08:56.493Z,3.00
2018-03-11T19:11:24.758Z,4.43
2018-03-11T19:13:52.267Z,2.97
2018-03-11T19:16:20.599Z,4.03
2018-03-11T19:18:48.136Z,3.80
2018-03-11T19:21:15.615Z,3.60
2018-03-11T19:23:43.140Z,4.77
2018-03-11T19:26:10.628Z,3.37
2018-03-11T19:28:38.137Z,3.57
2018-03-11T19:31:05.687Z,3.90
2018-03-11T19:33:33.197Z,3.70
2018-03-11T19:36:00.713Z,3.53
2018-03-11T19:38:28.197Z,2.80
2018-03-11T19:40:55.750Z,3.40
2018-03-11T19:43:23.315Z,3.77
2018-03-11T19:45:50.760Z,3.30
2018-03-11T19:48:19.070Z,5.70
2018-03-11T19:50:46.585Z,5.10
2018-03-11T19:53:14.859Z,4.63
2018-03-11T19:55:42.381Z,5.43
2018-03-11T19:58:09.882Z,6.27
2018-03-11T20:00:38.191Z,4.60
2018-03-11T20:03:05.742Z,3.27
2018-03-11T20:05:33.334Z,3.70
2018-03-11T20:08:00.828Z,3.13
2018-03-11T20:10:29.134Z,4.20
2018-03-11T20:12:56.640Z,3.67
2018-03-11T20:15:24.178Z,4.53
2018-03-11T20:17:52.577Z,12.63
2018-03-11T20:20:20.129Z,4.00
2018-03-11T20:22:47.635Z,4.13
2018-03-11T20:25:15.176Z,4.33
2018-03-11T20:27:42.680Z,6.33
2018-03-11T20:30:10.195Z,3.40
2018-03-11T20:32:38.462Z,3.97
2018-03-11T20:35:06.014Z,6.30
2018-03-11T20:37:33.539Z,4.20
2018-03-11T20:40:01.052Z,4.17
2018-03-11T20:42:28.597Z,3.37
2018-03-11T20:44:56.342Z,3.57
2018-03-11T20:47:24.183Z,4.30
2018-03-11T20:49:51.729Z,4.60
2018-03-11T20:52:19.287Z,4.20
2018-03-11T20:54:46.821Z,3.83
2018-03-11T20:57:15.080Z,5.60
2018-03-11T20:59:43.493Z,6.67
2018-03-11T21:02:10.985Z,5.73
2018-03-11T21:04:38.482Z,6.00
2018-03-11T21:07:06.751Z,9.27
2018-03-11T21:09:35.066Z,6.80
2018-03-11T21:12:02.561Z,5.73
2018-03-11T21:14:30.081Z,6.50
2018-03-11T21:16:57.600Z,6.23
2018-03-11T21:19:25.915Z,5.40
2018-03-11T21:21:53.678Z,5.63
2018-03-11T21:24:21.148Z,5.80
2018-03-11T21:26:48.697Z,5.20
2018-03-11T21:29:16.189Z,8.17
2018-03-11T21:31:44.420Z,5.70
2018-03-11T21:34:13.759Z,5.90
2018-03-11T21:36:41.275Z,6.40
2018-03-11T21:39:08.785Z,7.17
2018-03-11T21:41:36.323Z,7.60
2018-03-11T21:44:03.819Z,6.40
2018-03-11T21:46:31.367Z,5.53
2018-03-11T21:48:58.847Z,8.77
2018-03-11T21:51:26.357Z,6.80
2018-03-11T21:53:53.844Z,5.63
2018-03-11T21:56:21.341Z,6.00
2018-03-11T21:58:48.841Z,9.57
2018-03-11T22:01:16.347Z,5.00
2018-03-11T22:03:43.910Z,9.60
2018-03-11T22:06:11.442Z,6.83
2018-03-11T22:08:38.927Z,5.83
2018-03-11T22:11:07.303Z,6.97
2018-03-11T22:13:35.558Z,5.80
2018-03-11T22:16:03.839Z,4.97
2018-03-11T22:18:31.344Z,6.83
2018-03-11T22:20:58.825Z,5.53
2018-03-11T22:23:26.325Z,6.93
2018-03-11T22:25:54.615Z,6.83
2018-03-11T22:28:25.859Z,5.40
2018-03-11T22:30:53.426Z,7.27
2018-03-11T22:33:20.940Z,7.33
2018-03-11T22:35:48.435Z,7.50
2018-03-11T22:38:16.003Z,8.50
2018-03-11T22:40:43.502Z,9.27
2018-03-11T22:43:11.498Z,7.60
2018-03-11T22:45:39.783Z,9.60
2018-03-11T22:48:08.043Z,9.27
2018-03-11T22:50:36.318Z,10.47
2018-03-11T22:53:04.595Z,9.17
2018-03-11T22:55:32.853Z,12.90
2018-03-11T22:58:00.382Z,11.00
2018-03-11T23:00:27.878Z,8.87
2018-03-11T23:02:55.374Z,8.67
2018-03-11T23:05:22.853Z,7.23
2018-03-11T23:07:51.217Z,10.00
2018-03-11T23:10:18.722Z,11.63
2018-03-11T23:12:46.199Z,10.90
2018-03-11T23:15:14.468Z,9.73
2018-03-11T23:17:42.751Z,8.13
2018-03-11T23:20:10.997Z,10.50
2018-03-11T23:22:38.481Z,9.87
2018-03-11T23:25:05.981Z,10.83
2018-03-11T23:27:33.459Z,12.60
2018-03-11T23:30:00.958Z,12.73
2018-03-11T23:32:29.212Z,15.00
2018-03-11T23:34:56.718Z,12.90
2018-03-11T23:37:24.215Z,13.10
2018-03-11T23:39:51.690Z,11.53
2018-03-11T23:42:19.174Z,12.47
2018-03-11T23:44:46.715Z,14.43
2018-03-11T23:47:14.224Z,15.50
2018-03-11T23:49:41.702Z,12.97
2018-03-11T23:52:09.246Z,11.57
2018-03-11T23:54:36.761Z,13.90
2018-03-11T23:57:05.027Z,12.13
2018-03-11T23:59:33.284Z,11.33
